Time;durP1;ratioP1;P1;durP2;ratioP2;P2;SDS_P1;SDS_P2;PMS_P1;PMS_P2;Temp;Humidity;BMP_temperature;BMP_pressure;BME280_temperature;BME280_humidity;BME280_pressure;Samples;Min_cycle;Max_cycle;Signal;HPM_P1;HPM_P2
2021/04/23 00:02:16;;;;;;;13.38;9.82;;;24.90;54.00;;;;;;5071160;28;20024;-59
2021/04/23 00:04:42;;;;;;;12.50;8.90;;;24.80;53.90;;;;;;5070942;28;20021;-59
2021/04/23 00:07:08;;;;;;;15.68;9.90;;;24.80;53.90;;;;;;5070957;28;20119;-59
2021/04/23 00:09:36;;;;;;;11.20;8.07;;;24.80;54.00;;;;;;5071105;28;20028;-60
2021/04/23 00:12:15;;;;;;;13.30;8.27;;;24.80;54.20;;;;;;5071008;28;20028;-59
2021/04/23 00:14:47;;;;;;;11.93;8.70;;;24.80;54.30;;;;;;5070576;28;20382;-59
2021/04/23 00:17:14;;;;;;;12.95;8.38;;;24.80;54.30;;;;;;5071165;28;20144;-59
2021/04/23 00:19:41;;;;;;;12.48;7.68;;;24.70;54.20;;;;;;5070895;28;20031;-59
2021/04/23 00:22:08;;;;;;;13.43;7.53;;;24.80;54.30;;;;;;5070402;28;20074;-59
2021/04/23 00:24:35;;;;;;;11.88;7.88;;;24.80;54.30;;;;;;5053182;28;20082;-59
2021/04/23 00:27:03;;;;;;;10.07;6.80;;;24.80;54.30;;;;;;5052714;28;20063;-59
2021/04/23 00:29:29;;;;;;;8.05;6.60;;;24.80;54.20;;;;;;5052956;28;20048;-59
2021/04/23 00:34:41;;;;;;;13.52;7.57;;;24.80;54.20;;;;;;5070759;28;20094;-59
2021/04/23 00:37:07;;;;;;;12.07;6.43;;;24.80;54.20;;;;;;5052793;28;20040;-59
2021/04/23 00:39:35;;;;;;;9.00;6.45;;;24.70;54.20;;;;;;5070697;28;20123;-59
2021/04/23 00:42:05;;;;;;;9.35;6.00;;;24.70;54.30;;;;;;5067527;28;20064;-59
2021/04/23 00:44:31;;;;;;;10.07;6.80;;;24.70;54.20;;;;;;5052711;28;20119;-59
2021/04/23 00:46:57;;;;;;;11.25;6.13;;;24.70;54.20;;;;;;5070635;28;20447;-59
2021/04/23 00:49:23;;;;;;;9.68;6.07;;;24.70;54.20;;;;;;5052071;28;20458;-59
2021/04/23 00:51:59;;;;;;;11.57;5.72;;;24.70;54.20;;;;;;5052491;28;20063;-59
2021/04/23 00:54:27;;;;;;;7.65;5.63;;;24.70;54.40;;;;;;5067178;28;20032;-59
2021/04/23 00:56:54;;;;;;;7.80;5.93;;;24.70;54.20;;;;;;5070575;28;20037;-59
2021/04/23 00:59:21;;;;;;;6.60;5.43;;;24.70;54.20;;;;;;5070276;28;20497;-60
2021/04/23 01:02:12;;;;;;;9.52;6.22;;;24.70;54.20;;;;;;5070027;28;20035;-59
2021/04/23 01:04:38;;;;;;;9.68;6.32;;;24.70;54.10;;;;;;5052525;28;20029;-59
2021/04/23 01:07:05;;;;;;;8.20;6.13;;;24.70;54.10;;;;;;5052341;28;20574;-59
2021/04/23 01:09:31;;;;;;;8.60;6.18;;;24.70;54.10;;;;;;5070090;28;20016;-59
2021/04/23 01:12:00;;;;;;;9.70;5.85;;;24.70;54.20;;;;;;5069860;28;20082;-58
2021/04/23 01:14:27;;;;;;;9.13;5.82;;;24.70;54.20;;;;;;5069999;28;20028;-59
2021/04/23 01:16:54;;;;;;;7.22;5.25;;;24.70;54.10;;;;;;5073508;28;20120;-59
2021/04/23 01:19:24;;;;;;;7.30;5.75;;;24.70;54.10;;;;;;5073701;28;20020;-59
2021/04/23 01:21:51;;;;;;;10.23;5.93;;;24.70;54.20;;;;;;5074147;28;20033;-58
2021/04/23 01:24:19;;;;;;;8.15;5.75;;;24.70;54.10;;;;;;5055867;28;20060;-59
2021/04/23 01:26:51;;;;;;;9.30;5.95;;;24.70;54.10;;;;;;5073742;28;20040;-58
2021/04/23 01:29:19;;;;;;;10.10;6.13;;;24.70;54.10;;;;;;5073577;28;20032;-58
2021/04/23 01:31:49;;;;;;;8.40;5.15;;;24.70;54.10;;;;;;5073959;28;20107;-59
2021/04/23 01:34:23;;;;;;;7.47;5.38;;;24.70;54.20;;;;;;5073502;28;20489;-58
2021/04/23 01:36:51;;;;;;;8.52;5.47;;;24.70;54.20;;;;;;5074134;28;20123;-59
2021/04/23 01:39:22;;;;;;;7.40;5.38;;;24.70;54.10;;;;;;5055576;28;20102;-59
2021/04/23 01:41:48;;;;;;;9.93;4.93;;;24.70;54.20;;;;;;5055286;28;20024;-58
2021/04/23 01:44:17;;;;;;;8.73;4.95;;;24.70;54.10;;;;;;5073724;28;20035;-59
2021/04/23 01:46:43;;;;;;;8.57;5.10;;;24.70;54.10;;;;;;5074544;28;20024;-50
2021/04/23 01:49:14;;;;;;;7.03;4.50;;;24.70;54.10;;;;;;5075289;28;20033;-50
2021/04/23 01:51:44;;;;;;;9.45;4.78;;;24.70;54.10;;;;;;5075021;28;20118;-49
2021/04/23 01:54:12;;;;;;;8.02;5.03;;;24.70;54.00;;;;;;5075199;28;20490;-50
2021/04/23 01:56:39;;;;;;;8.90;5.03;;;24.70;54.00;;;;;;5056203;28;20039;-50
2021/04/23 01:59:06;;;;;;;9.32;5.40;;;24.70;53.90;;;;;;5074705;28;20095;-50
2021/04/23 02:01:33;;;;;;;7.28;4.47;;;24.70;54.00;;;;;;5056943;28;20478;-49
2021/04/23 02:04:00;;;;;;;5.75;4.43;;;24.60;54.00;;;;;;5070290;28;20417;-49
2021/04/23 02:06:26;;;;;;;8.32;5.18;;;24.60;54.00;;;;;;5074496;28;20067;-48
2021/04/23 02:08:53;;;;;;;7.55;5.18;;;24.70;54.00;;;;;;5074607;28;20100;-49
2021/04/23 02:11:20;;;;;;;6.28;4.47;;;24.60;53.90;;;;;;5073395;28;20051;-59
2021/04/23 02:13:48;;;;;;;6.47;4.40;;;24.60;54.00;;;;;;5072570;28;20386;-59
2021/04/23 02:16:16;;;;;;;7.93;4.55;;;24.60;54.00;;;;;;5073063;28;20029;-58
2021/04/23 02:18:44;;;;;;;6.47;4.63;;;24.60;54.00;;;;;;5072492;28;20039;-59
2021/04/23 02:21:10;;;;;;;4.53;3.80;;;24.60;53.90;;;;;;5072775;28;20099;-58
2021/04/23 02:23:39;;;;;;;7.95;4.22;;;24.60;53.90;;;;;;5072606;28;20048;-59
2021/04/23 02:26:06;;;;;;;10.48;4.72;;;24.60;53.90;;;;;;5071810;28;20077;-58
2021/04/23 02:28:32;;;;;;;8.13;4.10;;;24.60;53.80;;;;;;5072470;28;20020;-59
2021/04/23 02:31:13;;;;;;;7.40;4.72;;;24.60;53.80;;;;;;5072452;28;20032;-59
2021/04/23 02:33:41;;;;;;;8.75;4.60;;;24.60;53.80;;;;;;5072392;28;20028;-58
2021/04/23 02:36:08;;;;;;;6.72;3.90;;;24.60;53.80;;;;;;5072450;28;20029;-59
2021/04/23 02:38:34;;;;;;;9.98;4.18;;;24.60;53.70;;;;;;5072149;28;20033;-59
2021/04/23 02:41:02;;;;;;;7.03;4.13;;;24.60;53.60;;;;;;5072445;28;20025;-59
2021/04/23 02:43:31;;;;;;;7.22;3.80;;;24.60;53.60;;;;;;5072141;28;20033;-59
2021/04/23 02:45:59;;;;;;;6.90;3.97;;;24.50;53.50;;;;;;5054551;28;20024;-59
2021/04/23 02:48:28;;;;;;;7.35;3.95;;;24.50;53.50;;;;;;5072428;28;20735;-58
2021/04/23 02:51:01;;;;;;;4.45;3.13;;;24.50;53.40;;;;;;5072211;28;20033;-59
2021/04/23 02:53:27;;;;;;;7.60;3.67;;;24.50;53.50;;;;;;5054211;28;20059;-59
2021/04/23 02:55:53;;;;;;;7.97;3.42;;;24.50;53.50;;;;;;5071950;28;20032;-59
2021/04/23 02:58:20;;;;;;;8.57;4.35;;;24.50;53.50;;;;;;5071967;28;20413;-59
2021/04/23 03:00:52;;;;;;;4.95;3.28;;;24.50;53.60;;;;;;5072073;28;20090;-58
2021/04/23 03:03:21;;;;;;;7.30;3.70;;;24.50;53.60;;;;;;5065492;28;20351;-59
2021/04/23 03:05:48;;;;;;;5.55;4.18;;;24.50;53.60;;;;;;5052256;28;20029;-58
2021/04/23 03:08:15;;;;;;;5.47;3.35;;;24.50;53.60;;;;;;5033771;28;20035;-58
2021/04/23 03:10:48;;;;;;;6.65;3.70;;;24.40;53.50;;;;;;5072171;28;20141;-59
2021/04/23 03:13:21;;;;;;;6.57;3.42;;;24.40;53.50;;;;;;5071753;28;20548;-59
2021/04/23 03:15:48;;;;;;;9.05;3.83;;;24.40;53.50;;;;;;5053050;28;20059;-59
2021/04/23 03:18:17;;;;;;;6.10;3.28;;;24.40;53.50;;;;;;5071390;28;20169;-59
2021/04/23 03:20:43;;;;;;;7.85;3.40;;;24.40;53.50;;;;;;5071361;28;20090;-58
2021/04/23 03:23:10;;;;;;;3.50;2.65;;;24.40;53.40;;;;;;5071662;28;20045;-59
2021/04/23 03:25:36;;;;;;;6.05;2.95;;;24.40;53.40;;;;;;5071550;28;20442;-59
2021/04/23 03:28:04;;;;;;;8.68;3.42;;;24.40;53.40;;;;;;5071306;28;20116;-59
2021/04/23 03:30:33;;;;;;;5.13;3.33;;;24.40;53.30;;;;;;5071397;28;20028;-58
2021/04/23 03:33:00;;;;;;;7.32;3.78;;;24.40;53.30;;;;;;5053510;28;20430;-58
2021/04/23 03:35:27;;;;;;;5.97;3.08;;;24.40;53.30;;;;;;5071201;28;20081;-59
2021/04/23 03:37:54;;;;;;;6.13;3.13;;;24.30;53.30;;;;;;5070571;28;20025;-60
2021/04/23 03:40:24;;;;;;;6.38;3.40;;;24.30;53.20;;;;;;5053130;28;20423;-58
2021/04/23 03:42:50;;;;;;;6.18;3.00;;;24.30;53.20;;;;;;5071457;28;20040;-59
2021/04/23 03:45:19;;;;;;;6.45;3.67;;;24.30;53.20;;;;;;5071345;28;20043;-59
2021/04/23 03:47:47;;;;;;;7.47;3.70;;;24.30;53.30;;;;;;5071261;28;20082;-59
2021/04/23 03:50:17;;;;;;;5.72;3.13;;;24.30;53.30;;;;;;5071230;28;20021;-60
2021/04/23 03:52:43;;;;;;;4.00;3.15;;;24.30;53.30;;;;;;5070757;28;20036;-59
2021/04/23 03:55:17;;;;;;;5.63;2.80;;;24.30;53.30;;;;;;5071325;28;20520;-59
2021/04/23 03:57:43;;;;;;;4.80;2.47;;;24.30;53.40;;;;;;5070976;28;20035;-58
2021/04/23 04:00:13;;;;;;;7.60;3.10;;;24.30;53.40;;;;;;5071039;28;20103;-59
2021/04/23 04:02:40;;;;;;;;;;;24.30;53.40;;;;;;5053265;28;20114;-58
2021/04/23 04:05:08;;;;;;;9.60;3.38;;;24.30;53.50;;;;;;5071138;28;19908;-59
2021/04/23 04:07:34;;;;;;;8.82;3.22;;;24.30;53.20;;;;;;5070642;28;20103;-58
2021/04/23 04:10:01;;;;;;;4.72;2.55;;;24.30;53.20;;;;;;5070651;28;20466;-59
2021/04/23 04:12:27;;;;;;;6.43;3.33;;;24.30;53.40;;;;;;5052513;28;20154;-59
2021/04/23 04:14:53;;;;;;;5.97;2.70;;;24.30;53.40;;;;;;5070970;28;20027;-58
2021/04/23 04:17:19;;;;;;;5.82;2.83;;;24.30;53.50;;;;;;5070649;28;20033;-59
2021/04/23 04:19:45;;;;;;;8.63;3.00;;;24.20;53.50;;;;;;5070517;28;20097;-59
2021/04/23 04:22:11;;;;;;;4.82;2.88;;;24.30;53.60;;;;;;5052285;28;20119;-59
2021/04/23 04:24:37;;;;;;;7.88;3.38;;;24.20;53.60;;;;;;5071030;28;20056;-59
2021/04/23 04:27:03;;;;;;;5.80;2.90;;;24.20;53.70;;;;;;5052433;28;20070;-59
2021/04/23 04:29:29;;;;;;;4.85;3.20;;;24.20;53.70;;;;;;5070960;28;20017;-59
2021/04/23 04:31:55;;;;;;;6.38;2.95;;;24.20;53.70;;;;;;5070403;28;20107;-58
2021/04/23 04:34:21;;;;;;;8.75;3.13;;;24.20;53.80;;;;;;5052948;28;20111;-58
2021/04/23 04:36:47;;;;;;;6.60;3.17;;;24.20;53.90;;;;;;5070960;28;20759;-59
2021/04/23 04:39:13;;;;;;;5.85;3.53;;;24.20;53.80;;;;;;5070832;28;20489;-59
2021/04/23 04:41:39;;;;;;;6.70;3.35;;;24.20;53.80;;;;;;5070208;28;20118;-60
2021/04/23 04:44:06;;;;;;;8.82;3.33;;;24.20;53.90;;;;;;5070581;28;20163;-59
2021/04/23 04:46:33;;;;;;;6.95;3.20;;;24.20;53.80;;;;;;5070369;28;20032;-59
2021/04/23 04:48:59;;;;;;;4.20;3.30;;;24.20;53.80;;;;;;5070437;28;20021;-59
2021/04/23 04:51:26;;;;;;;7.93;3.17;;;24.20;53.70;;;;;;5072836;28;20120;-59
2021/04/23 04:53:52;;;;;;;9.60;3.40;;;24.10;53.50;;;;;;5074450;28;20029;-59
2021/04/23 04:56:18;;;;;;;6.22;3.15;;;24.10;53.50;;;;;;5056600;28;20043;-58
2021/04/23 04:58:44;;;;;;;7.45;3.20;;;24.10;53.50;;;;;;5074419;28;20032;-59
2021/04/23 05:01:14;;;;;;;7.43;3.25;;;24.10;53.50;;;;;;5073826;28;20385;-59
2021/04/23 05:03:40;;;;;;;10.02;4.22;;;24.10;53.50;;;;;;5074023;28;20060;-59
2021/04/23 05:06:08;;;;;;;8.75;3.75;;;24.10;53.50;;;;;;5069870;28;20107;-50
2021/04/23 05:08:35;;;;;;;8.10;3.90;;;24.00;53.50;;;;;;5074968;28;20135;-49
2021/04/23 05:11:01;;;;;;;7.90;3.63;;;24.00;53.50;;;;;;5075559;28;20450;-49
2021/04/23 05:13:28;;;;;;;10.68;3.72;;;24.00;53.50;;;;;;5075167;28;20025;-49
2021/04/23 05:15:54;;;;;;;9.88;3.55;;;24.10;53.50;;;;;;5075526;28;20038;-49
2021/04/23 05:18:20;;;;;;;8.93;3.83;;;24.00;53.50;;;;;;5075799;28;20032;-49
2021/04/23 05:20:46;;;;;;;5.53;3.25;;;24.00;53.60;;;;;;5057739;28;20029;-50
2021/04/23 05:23:12;;;;;;;5.43;3.47;;;24.00;53.60;;;;;;5075655;28;20398;-50
2021/04/23 05:25:39;;;;;;;6.85;3.30;;;24.00;53.60;;;;;;5057747;28;20150;-50
2021/04/23 05:28:05;;;;;;;5.78;3.63;;;24.00;53.60;;;;;;5075783;28;20025;-50
2021/04/23 05:30:33;;;;;;;8.15;3.78;;;24.00;53.70;;;;;;5075408;28;20073;-49
2021/04/23 05:33:01;;;;;;;11.48;3.72;;;24.00;53.70;;;;;;5075654;28;20032;-48
2021/04/23 05:35:28;;;;;;;8.77;4.43;;;24.00;53.70;;;;;;5075029;28;20419;-50
2021/04/23 05:37:55;;;;;;;11.73;4.85;;;24.00;53.70;;;;;;5075576;28;20032;-49
2021/04/23 05:40:32;;;;;;;7.45;3.58;;;23.90;54.40;;;;;;5057306;28;20032;-49
2021/04/23 05:42:59;;;;;;;10.05;3.97;;;23.90;53.80;;;;;;5075243;28;20020;-49
2021/04/23 05:45:25;;;;;;;7.50;4.00;;;23.90;53.80;;;;;;5075093;28;20039;-49
2021/04/23 05:47:52;;;;;;;11.02;4.63;;;23.90;53.80;;;;;;5075140;28;20052;-50
2021/04/23 05:50:18;;;;;;;12.35;4.57;;;23.90;53.80;;;;;;5075180;28;20036;-49
2021/04/23 05:52:45;;;;;;;9.32;4.05;;;23.90;53.80;;;;;;5067212;28;20921;-59
2021/04/23 05:55:14;;;;;;;9.35;3.97;;;23.90;53.80;;;;;;5052813;28;20075;-54
2021/04/23 05:57:41;;;;;;;8.50;4.40;;;23.90;53.90;;;;;;5058507;28;20024;-50
2021/04/23 06:00:11;;;;;;;9.77;4.13;;;23.80;53.80;;;;;;5074604;28;20032;-59
2021/04/23 06:02:41;;;;;;;10.23;4.30;;;23.90;54.00;;;;;;5073059;28;20031;-59
2021/04/23 06:05:08;;;;;;;10.98;4.82;;;23.90;54.00;;;;;;5052876;28;20089;-59
2021/04/23 06:07:34;;;;;;;10.07;4.50;;;23.90;53.80;;;;;;5067891;28;20034;-59
2021/04/23 06:10:00;;;;;;;8.43;3.78;;;23.80;53.70;;;;;;5071993;28;20024;-59
2021/04/23 06:12:27;;;;;;;13.02;4.45;;;23.90;53.80;;;;;;5071726;28;20086;-58
2021/04/23 06:14:53;;;;;;;10.18;4.53;;;23.90;53.80;;;;;;5055196;28;20382;-49
2021/04/23 06:17:19;;;;;;;8.40;3.78;;;23.80;53.90;;;;;;5072475;28;20020;-49
2021/04/23 06:19:45;;;;;;;9.90;4.10;;;23.90;53.90;;;;;;5073812;28;20025;-49
2021/04/23 06:22:11;;;;;;;7.18;3.85;;;23.90;53.90;;;;;;5073463;28;20094;-48
2021/04/23 06:24:37;;;;;;;6.97;4.00;;;23.80;53.80;;;;;;5074315;28;20039;-49
2021/04/23 06:27:04;;;;;;;11.68;4.32;;;23.80;53.70;;;;;;5074441;28;20024;-49
2021/04/23 06:29:31;;;;;;;9.57;4.45;;;23.80;53.70;;;;;;5073167;28;20031;-49
2021/04/23 06:31:57;;;;;;;12.00;4.18;;;23.80;53.70;;;;;;5072712;28;20016;-49
2021/04/23 06:34:23;;;;;;;11.50;5.35;;;23.90;53.70;;;;;;5072926;28;20090;-49
2021/04/23 06:36:49;;;;;;;11.10;4.00;;;23.80;53.70;;;;;;5072620;28;20033;-48
2021/04/23 06:39:17;;;;;;;10.63;4.72;;;23.80;53.70;;;;;;5071410;28;20459;-48
2021/04/23 06:41:45;;;;;;;14.80;5.30;;;23.80;53.80;;;;;;5072422;28;20435;-48
2021/04/23 06:44:11;;;;;;;12.13;4.85;;;23.70;53.70;;;;;;5072856;28;20029;-49
2021/04/23 06:46:37;;;;;;;11.93;4.70;;;23.80;53.80;;;;;;5072551;28;20478;-49
2021/04/23 06:49:04;;;;;;;15.07;5.05;;;23.80;53.80;;;;;;5072259;28;20081;-49
2021/04/23 06:51:30;;;;;;;11.40;4.80;;;23.80;53.80;;;;;;5073309;28;20063;-49
2021/04/23 06:53:56;;;;;;;9.10;4.97;;;23.80;53.90;;;;;;5073850;28;20029;-49
2021/04/23 06:56:23;;;;;;;12.10;5.40;;;23.80;53.80;;;;;;5073595;28;20025;-49
2021/04/23 06:58:49;;;;;;;8.65;5.28;;;23.80;53.80;;;;;;5073593;28;20141;-49
2021/04/23 07:01:18;;;;;;;13.20;6.13;;;23.80;53.70;;;;;;5073415;28;20043;-49
2021/04/23 07:03:45;;;;;;;16.92;5.45;;;23.80;53.50;;;;;;5073650;28;20027;-49
2021/04/23 07:06:11;;;;;;;18.30;5.53;;;23.80;53.50;;;;;;5073475;28;20016;-49
2021/04/23 07:08:38;;;;;;;15.15;5.60;;;23.90;53.50;;;;;;5073364;28;20058;-49
2021/04/23 07:11:05;;;;;;;11.23;5.90;;;23.90;53.50;;;;;;5073303;28;20025;-49
2021/04/23 07:13:32;;;;;;;44.13;39.33;;;23.90;53.50;;;;;;5073138;28;20029;-49
2021/04/23 07:15:58;;;;;;;78.20;70.03;;;23.90;53.50;;;;;;5073504;28;20489;-49
2021/04/23 07:18:26;;;;;;;63.20;54.13;;;23.90;53.50;;;;;;5073468;28;20090;-49
2021/04/23 07:20:54;;;;;;;49.25;42.30;;;23.90;53.40;;;;;;5073577;28;20078;-49
2021/04/23 07:23:20;;;;;;;49.00;39.85;;;24.00;53.30;;;;;;5073241;28;20477;-49
2021/04/23 07:25:47;;;;;;;39.47;32.83;;;24.00;53.20;;;;;;5073402;28;20029;-49
2021/04/23 07:28:14;;;;;;;37.58;29.88;;;24.00;53.20;;;;;;5072789;28;20486;-49
2021/04/23 07:30:40;;;;;;;34.10;25.70;;;24.00;53.20;;;;;;5073003;28;20111;-49
2021/04/23 07:33:13;;;;;;;36.70;24.92;;;24.00;53.20;;;;;;5072626;28;20360;-49
2021/04/23 07:35:44;;;;;;;29.48;23.33;;;24.10;53.10;;;;;;5072673;28;20032;-50
2021/04/23 07:38:11;;;;;;;23.40;17.90;;;24.10;53.00;;;;;;5073017;28;20035;-49
2021/04/23 07:40:37;;;;;;;21.40;13.70;;;24.10;53.00;;;;;;5072650;28;20029;-48
2021/04/23 07:43:04;;;;;;;17.20;9.80;;;24.10;53.00;;;;;;5072730;28;20028;-47
2021/04/23 07:45:30;;;;;;;35.00;29.25;;;24.20;52.70;;;;;;5072395;28;20032;-50
2021/04/23 07:47:57;;;;;;;50.17;41.83;;;24.10;52.70;;;;;;5071822;28;20085;-51
2021/04/23 07:50:25;;;;;;;28.95;21.13;;;24.20;52.50;;;;;;5072082;28;20023;-50
2021/04/23 07:52:52;;;;;;;21.40;15.45;;;24.10;52.50;;;;;;5071823;28;20020;-51
2021/04/23 07:55:23;;;;;;;18.05;9.48;;;24.00;52.50;;;;;;5072129;28;20048;-51
2021/04/23 07:57:50;;;;;;;16.83;7.00;;;24.00;52.60;;;;;;5071873;28;20033;-50
2021/04/23 08:00:19;;;;;;;107.75;90.72;;;24.00;52.70;;;;;;5053839;28;20033;-50
2021/04/23 08:02:45;;;;;;;46.55;36.55;;;23.90;52.70;;;;;;5071885;28;20044;-51
2021/04/23 08:05:16;;;;;;;25.83;13.52;;;24.00;52.60;;;;;;5071967;28;20028;-51
2021/04/23 08:07:44;;;;;;;;;;;23.90;52.70;;;;;;5072351;28;20095;-51
2021/04/23 08:10:11;;;;;;;18.80;7.93;;;23.90;53.10;;;;;;5072246;28;19991;-51
2021/04/23 08:12:38;;;;;;;26.15;8.85;;;24.00;52.30;;;;;;5072293;28;20055;-51
2021/04/23 08:15:05;;;;;;;18.83;7.50;;;24.00;52.20;;;;;;5072296;28;20359;-51
2021/04/23 08:17:31;;;;;;;21.55;13.75;;;24.00;52.00;;;;;;5072349;28;20105;-51
2021/04/23 08:19:57;;;;;;;23.27;14.90;;;24.00;52.30;;;;;;5072481;28;20032;-51
2021/04/23 08:22:23;;;;;;;27.95;14.55;;;23.90;52.50;;;;;;5071670;28;20483;-51
2021/04/23 08:24:49;;;;;;;21.98;10.77;;;23.90;52.50;;;;;;5055481;28;20027;-51
2021/04/23 08:27:15;;;;;;;16.05;8.02;;;23.80;52.50;;;;;;5056789;28;20016;-51
2021/04/23 08:29:41;;;;;;;13.10;5.97;;;23.80;52.30;;;;;;5076141;28;20025;-51
2021/04/23 08:32:07;;;;;;;11.60;6.00;;;23.80;52.30;;;;;;5075988;28;20047;-50
2021/04/23 08:34:33;;;;;;;17.27;5.45;;;23.70;52.50;;;;;;5076078;28;20095;-51
2021/04/23 08:36:59;;;;;;;19.88;5.43;;;23.70;52.80;;;;;;5076110;28;20466;-51
2021/04/23 08:39:25;;;;;;;18.67;5.90;;;23.70;52.80;;;;;;5076126;28;20070;-51
2021/04/23 08:41:51;;;;;;;20.25;5.10;;;23.70;53.00;;;;;;5076048;28;20033;-51
2021/04/23 08:44:17;;;;;;;17.52;8.05;;;23.70;53.40;;;;;;5075653;28;20044;-51
2021/04/23 08:46:43;;;;;;;35.78;26.35;;;23.60;53.50;;;;;;5076073;28;20032;-50
2021/04/23 08:49:10;;;;;;;23.65;12.02;;;23.70;53.80;;;;;;5075859;28;20016;-51
2021/04/23 08:51:36;;;;;;;17.92;7.68;;;23.80;53.90;;;;;;5075763;28;20100;-51
2021/04/23 08:54:04;;;;;;;12.82;4.50;;;23.90;53.40;;;;;;5075703;28;20039;-51
2021/04/23 08:56:30;;;;;;;11.70;5.05;;;23.80;53.00;;;;;;5076075;28;20684;-52
2021/04/23 08:58:56;;;;;;;14.15;5.97;;;23.70;53.20;;;;;;5057566;28;20770;-50
2021/04/23 09:01:22;;;;;;;13.80;5.70;;;23.80;53.20;;;;;;5075597;28;20024;-50
2021/04/23 09:03:48;;;;;;;20.08;11.32;;;23.80;53.20;;;;;;5075688;28;20037;-50
2021/04/23 09:06:21;;;;;;;24.73;16.55;;;23.80;53.20;;;;;;5075443;28;20032;-51
2021/04/23 09:09:11;;;;;;;27.45;20.05;;;23.90;53.00;;;;;;5075493;28;20036;-51
2021/04/23 09:11:41;;;;;;;23.48;13.20;;;23.90;53.10;;;;;;5075427;28;20435;-51
2021/04/23 09:14:26;;;;;;;18.02;7.15;;;24.00;53.00;;;;;;5075539;28;20040;-51
2021/04/23 09:16:57;;;;;;;12.80;5.75;;;24.00;52.90;;;;;;5075729;28;20098;-51
2021/04/23 09:19:35;;;;;;;15.73;5.22;;;24.10;53.00;;;;;;5075124;28;20043;-51
2021/04/23 09:22:03;;;;;;;20.20;8.73;;;24.10;53.00;;;;;;5075177;28;20385;-51
2021/04/23 09:24:37;;;;;;;13.70;5.38;;;24.20;53.10;;;;;;5075258;28;20038;-51
2021/04/23 09:27:13;;;;;;;15.18;4.68;;;24.20;52.80;;;;;;5057509;28;20095;-51
2021/04/23 09:29:42;;;;;;;18.52;5.65;;;24.20;52.70;;;;;;5075362;28;20025;-51
2021/04/23 09:32:30;;;;;;;12.73;4.78;;;24.20;52.80;;;;;;5075562;28;20040;-50
2021/04/23 09:35:11;;;;;;;15.38;6.78;;;24.10;52.60;;;;;;5074792;28;20138;-50
2021/04/23 09:37:46;;;;;;;11.85;5.82;;;24.00;53.00;;;;;;5075262;28;20033;-52
2021/04/23 09:40:15;;;;;;;21.40;6.10;;;24.00;53.30;;;;;;5075033;28;20036;-52
2021/04/23 09:42:58;;;;;;;14.30;5.50;;;24.00;53.30;;;;;;5056955;28;20025;-52
2021/04/23 09:45:30;;;;;;;12.52;4.70;;;24.00;53.90;;;;;;5075090;28;20036;-51
2021/04/23 09:47:57;;;;;;;13.27;4.63;;;24.10;53.60;;;;;;5074855;28;20652;-51
2021/04/23 09:50:33;;;;;;;16.15;3.95;;;24.00;53.60;;;;;;5075012;28;20055;-52
2021/04/23 09:53:00;;;;;;;11.82;4.85;;;24.00;53.90;;;;;;5074697;28;20382;-50
2021/04/23 09:55:30;;;;;;;19.25;5.65;;;24.10;53.90;;;;;;5074707;28;20055;-50
2021/04/23 09:58:00;;;;;;;18.92;5.30;;;24.10;53.80;;;;;;5074636;28;20039;-51
2021/04/23 10:00:28;;;;;;;11.32;4.93;;;24.20;53.20;;;;;;5056839;28;20029;-52
2021/04/23 10:02:59;;;;;;;12.15;5.65;;;24.20;53.20;;;;;;5074538;28;20436;-53
2021/04/23 10:05:42;;;;;;;16.45;5.18;;;24.20;53.50;;;;;;5074516;28;20028;-52
2021/04/23 10:08:23;;;;;;;9.85;4.38;;;24.20;53.40;;;;;;5074544;28;20029;-52
2021/04/23 10:10:58;;;;;;;12.50;5.22;;;24.20;53.10;;;;;;5074547;28;20037;-51
2021/04/23 10:13:29;;;;;;;13.18;4.50;;;24.20;52.60;;;;;;5074194;28;20115;-51
2021/04/23 10:15:56;;;;;;;13.40;5.05;;;24.10;52.90;;;;;;5055261;28;20120;-51
2021/04/23 10:18:22;;;;;;;21.70;6.15;;;24.20;52.70;;;;;;5074183;28;20032;-50
2021/04/23 10:20:50;;;;;;;9.10;4.95;;;24.10;53.40;;;;;;5056397;28;20401;-51
2021/04/23 10:23:19;;;;;;;15.25;4.50;;;24.10;53.00;;;;;;5055960;28;20037;-51
2021/04/23 10:25:47;;;;;;;12.43;4.40;;;24.20;52.90;;;;;;5074222;28;20032;-51
2021/04/23 10:28:21;;;;;;;13.70;5.57;;;24.30;52.60;;;;;;5056815;28;20041;-51
2021/04/23 10:30:50;;;;;;;15.27;5.45;;;24.30;52.40;;;;;;5074205;28;20036;-50
2021/04/23 10:33:25;;;;;;;12.93;5.32;;;24.30;52.20;;;;;;5056261;28;20541;-51
2021/04/23 10:35:55;;;;;;;12.05;4.53;;;24.40;51.60;;;;;;5074256;28;20043;-51
2021/04/23 10:38:31;;;;;;;18.10;5.72;;;24.40;51.50;;;;;;5074681;28;20032;-51
2021/04/23 10:41:00;;;;;;;12.75;4.93;;;24.30;51.60;;;;;;5073873;28;20482;-50
2021/04/23 10:43:27;;;;;;;16.15;6.10;;;24.40;51.90;;;;;;5073898;28;20032;-51
2021/04/23 10:46:09;;;;;;;24.65;5.63;;;24.40;51.90;;;;;;5073946;28;20389;-51
2021/04/23 10:48:40;;;;;;;14.82;5.07;;;24.30;52.20;;;;;;5055382;28;20441;-50
2021/04/23 10:51:11;;;;;;;15.07;4.88;;;24.40;52.20;;;;;;5073682;28;20036;-51
2021/04/23 10:53:44;;;;;;;;;;;24.40;52.20;;;;;;5074229;28;20066;-51
2021/04/23 10:56:30;;;;;;;15.25;5.35;;;24.40;52.60;;;;;;5073810;28;19908;-50
2021/04/23 10:59:08;;;;;;;19.08;5.25;;;24.60;51.80;;;;;;5073505;28;20032;-51
2021/04/23 11:01:39;;;;;;;18.63;5.90;;;24.50;51.90;;;;;;5073366;28;20082;-51
2021/04/23 11:04:16;;;;;;;22.90;5.90;;;24.50;52.40;;;;;;5072840;28;20033;-52
2021/04/23 11:07:14;;;;;;;17.75;5.53;;;24.50;52.60;;;;;;5073442;28;20839;-52
2021/04/23 11:09:57;;;;;;;18.83;6.22;;;24.70;52.00;;;;;;4972002;28;20549;-50
2021/04/23 11:12:25;;;;;;;14.23;5.28;;;24.60;51.70;;;;;;4972208;28;20045;-51
2021/04/23 11:15:12;;;;;;;19.13;5.95;;;24.60;51.40;;;;;;4971827;28;20109;-50
2021/04/23 11:17:38;;;;;;;18.67;5.93;;;24.60;51.10;;;;;;4956110;28;20512;-50
2021/04/23 11:20:25;;;;;;;19.23;5.78;;;24.50;51.10;;;;;;4971959;28;20055;-51
2021/04/23 11:22:53;;;;;;;21.00;6.60;;;24.20;51.80;;;;;;4971739;28;20062;-50
2021/04/23 11:25:21;;;;;;;21.58;6.28;;;24.20;52.10;;;;;;4970841;28;20105;-50
2021/04/23 11:28:18;;;;;;;14.85;5.97;;;24.00;52.70;;;;;;4971623;28;20034;-51
2021/04/23 11:30:58;;;;;;;18.17;5.13;;;24.00;52.40;;;;;;4914301;29;20063;-51
2021/04/23 11:33:50;;;;;;;24.00;5.85;;;23.80;52.90;;;;;;4914186;29;20062;-51
2021/04/23 11:36:22;;;;;;;17.10;5.57;;;24.00;53.10;;;;;;4914086;29;20040;-49
2021/04/23 11:39:05;;;;;;;15.88;5.95;;;24.10;52.10;;;;;;4914124;29;20126;-51
2021/04/23 11:41:31;;;;;;;20.65;5.35;;;24.00;52.20;;;;;;4914007;29;20083;-51
2021/04/23 11:43:57;;;;;;;17.33;5.43;;;24.00;52.80;;;;;;4913956;29;20598;-49
2021/04/23 11:46:52;;;;;;;18.55;5.70;;;23.80;52.90;;;;;;4989188;28;20038;-51
2021/04/23 11:49:18;;;;;;;23.20;4.60;;;23.80;53.20;;;;;;4990540;28;20026;-54
2021/04/23 11:51:53;;;;;;;15.38;4.55;;;23.90;53.80;;;;;;4990398;28;20038;-54
2021/04/23 11:54:48;;;;;;;34.95;6.82;;;24.00;53.10;;;;;;4990709;28;20081;-54
2021/04/23 11:57:14;;;;;;;38.78;6.25;;;24.20;53.10;;;;;;4913647;29;20407;-55
2021/04/23 12:00:15;;;;;;;63.92;9.05;;;24.30;52.90;;;;;;4897467;29;20515;-54
2021/04/23 12:02:51;;;;;;;33.17;6.68;;;24.50;52.80;;;;;;4894654;29;20095;-54
2021/04/23 12:05:22;;;;;;;27.23;6.10;;;24.60;52.60;;;;;;4878362;29;20041;-54
2021/04/23 12:07:49;;;;;;;19.52;5.47;;;24.70;52.40;;;;;;4925075;29;20043;-55
2021/04/23 12:10:15;;;;;;;28.23;5.00;;;24.80;52.30;;;;;;4932313;29;20044;-56
2021/04/23 12:12:45;;;;;;;17.92;5.13;;;24.90;52.20;;;;;;4932309;29;20459;-55
2021/04/23 12:15:38;;;;;;;27.60;5.47;;;25.00;52.10;;;;;;4948341;29;20039;-55
2021/04/23 12:18:05;;;;;;;26.13;5.53;;;25.10;52.00;;;;;;4916483;29;20081;-54
2021/04/23 12:20:39;;;;;;;17.40;5.22;;;25.20;51.80;;;;;;4932480;29;20106;-54
2021/04/23 12:23:10;;;;;;;21.77;5.57;;;25.30;51.60;;;;;;4932190;29;20054;-55
2021/04/23 12:25:36;;;;;;;19.60;5.03;;;25.30;51.50;;;;;;4932726;29;20114;-55
2021/04/23 12:28:24;;;;;;;20.80;6.05;;;25.40;51.60;;;;;;4932405;29;20044;-54
2021/04/23 12:30:59;;;;;;;17.08;4.72;;;25.50;51.50;;;;;;4916093;29;20064;-54
2021/04/23 12:33:45;;;;;;;20.00;5.60;;;25.50;51.20;;;;;;4948414;28;20140;-55
2021/04/23 12:36:16;;;;;;;20.77;4.95;;;25.60;51.20;;;;;;5011805;28;20056;-55
2021/04/23 12:38:43;;;;;;;18.50;5.47;;;25.70;51.20;;;;;;5053423;28;20089;-55
2021/04/23 12:41:19;;;;;;;17.13;5.05;;;25.70;51.10;;;;;;5071393;28;20036;-55
2021/04/23 12:43:45;;;;;;;12.95;4.55;;;25.70;51.00;;;;;;5071233;28;20085;-56
2021/04/23 12:46:46;;;;;;;16.85;5.60;;;25.80;51.10;;;;;;5053833;28;20027;-55
2021/04/23 12:49:20;;;;;;;21.38;4.97;;;25.80;51.10;;;;;;5018076;28;20114;-55
2021/04/23 12:51:49;;;;;;;10.55;4.15;;;25.80;50.80;;;;;;5071364;28;20111;-55
2021/04/23 12:54:21;;;;;;;13.25;4.90;;;25.90;50.90;;;;;;5071241;28;20033;-54
2021/04/23 12:56:54;;;;;;;15.48;6.82;;;25.90;50.80;;;;;;5071196;28;20031;-54